Airfield :
LOGIN :

Register | Disclaimer

   EN    FR    IT 

 










Legend :    VFR   Marginal VFR   IFR   Intensive IFR   Very Intensive IFR
Visi :
Ceiling :
>= 8 km
>= 3000ft
5 to 8 km
1000 to 3000 ft
1500m to 5 km
500 to 1000 ft
800 to 1500m
200 to 500 ft
< 800m
< 200 ft
Symbols :   Thunderstorms  Fog  Heavy snow  Heavy precipitations  Wind > 20 kt
SIGMETs :     Misc.  Thunderstorms  Icing  Turbulence  Mountain Waves  Volcanic Ashes






- Airport Elevation : 49 ft
- IATA code : GLZ


EHGR - Gilze-Rijen Airbase

CURRENT METAR :
  • 211755Z AUTO 25004KT 9999 SCT280 07/04 Q1011 BLU

EXPIRED METARs :
  • 211725Z AUTO 27005KT 9999 NCD 08/04 Q1011 BLU
  • 211655Z AUTO 27003KT 9999 NCD 08/05 Q1010 BLU
  • 211625Z AUTO 26005KT 9999 FEW043 09/06 Q1010 BLU
  • 211555Z AUTO 25005KT 9999 NCD 09/06 Q1009 BLU
  • 211525Z AUTO 27007KT 220V310 9999 SCT100 09/06 Q1009 BLU
  • 211504Z AUTO 28004KT 9999 FEW044 SCT069 BKN082 09/06 Q1008 BLU

TAF TAF EHGR
Valid from the 21 at 13:00 until the 22 at 01:00 UTC


211252Z 2113/2201 31013KT 9999 FEW018 SCT025
TEMPO 2113/2114 32015G30KT 4000 SHRA SCT018 SCT025CB
PROB30
TEMPO 2114/2116 4500 -SHRA SCT025CB
BECMG 2119/2121 26006KT



MET'MAP, your aeronautical weather chart ! - Copyright ORBIFLY December 2007 - Disclaimer

ORBIFLY MET'MAP TEAM :

Programming & Development : Alexandra Zaïnal
Concept & original design : Baudouin d'Aumeries
Assistance for programming : Marc-Olivier Méhu
Technical & hardware support : Manuel Goepfert

Contact : metmap@orbifly.com




SOURCES & CREDITS :

   NOAA